Time;durP1;ratioP1;P1;durP2;ratioP2;P2;SDS_P1;SDS_P2;PMS_P1;PMS_P2;Temp;Humidity;BMP_temperature;BMP_pressure;BME280_temperature;BME280_humidity;BME280_pressure;Samples;Min_cycle;Max_cycle;Signal;HPM_P1;HPM_P2
2022/01/24 00:00:11;;;;;;;14.00;9.75;;;5.30;99.90;;;;;;5040706;28;20126;-82
2022/01/24 00:02:38;;;;;;;15.75;9.90;;;5.30;99.90;;;;;;5038606;28;20058;-82
2022/01/24 00:05:05;;;;;;;14.52;10.60;;;5.00;99.90;;;;;;5040524;28;20398;-83
2022/01/24 00:07:32;;;;;;;15.00;10.57;;;5.30;99.90;;;;;;5039640;28;20099;-82
2022/01/24 00:10:01;;;;;;;16.00;11.05;;;5.30;99.90;;;;;;5059765;28;20491;-83
2022/01/24 00:12:51;;;;;;;20.10;11.52;;;5.70;99.90;;;;;;5076489;28;20041;-82
2022/01/24 00:16:19;;;;;;;17.48;12.18;;;5.20;99.90;;;;;;5046725;28;20045;-82
2022/01/24 00:18:11;;;;;;;17.40;11.23;;;5.30;99.90;;;;;;5053283;28;20053;-82
2022/01/24 00:28:49;;;;;;;22.05;14.23;;;6.10;99.90;;;;;;5046018;28;20111;-82
2022/01/24 00:31:15;;;;;;;21.42;14.95;;;5.30;99.90;;;;;;5042521;28;20521;-82
2022/01/24 00:33:41;;;;;;;23.13;14.73;;;5.30;99.90;;;;;;5042943;28;20126;-82
2022/01/24 00:36:09;;;;;;;23.52;14.40;;;5.30;99.90;;;;;;5043451;28;20123;-83
2022/01/24 00:38:35;;;;;;;22.05;15.45;;;5.30;99.90;;;;;;5041874;28;20495;-82
2022/01/24 00:41:00;;;;;;;25.42;15.77;;;5.30;99.90;;;;;;5026307;28;20056;-82
2022/01/24 00:43:43;;;;;;;25.45;16.23;;;6.20;99.90;;;;;;5074039;28;20051;-82
2022/01/24 00:46:19;;;;;;;25.27;15.55;;;5.30;99.90;;;;;;5028560;28;20441;-82
2022/01/24 00:56:57;;;;;;;27.70;18.00;;;5.20;99.90;;;;;;5031547;28;20049;-81
2022/01/24 00:59:23;;;;;;;28.42;18.05;;;5.20;99.90;;;;;;5025472;28;20059;-82
2022/01/24 01:01:48;;;;;;;31.58;19.35;;;6.70;99.90;;;;;;5043896;28;20048;-82
2022/01/24 01:04:15;;;;;;;29.67;18.10;;;5.30;99.90;;;;;;5044420;28;20048;-82
2022/01/24 01:06:43;;;;;;;32.30;19.23;;;5.20;99.90;;;;;;5044574;28;20041;-81
2022/01/24 01:20:07;;;;;;;28.67;20.52;;;5.20;99.90;;;;;;5058270;28;20128;-82
2022/01/24 01:22:33;;;;;;;32.35;21.92;;;5.20;99.90;;;;;;5042389;28;20175;-81
2022/01/24 01:24:59;;;;;;;32.08;22.08;;;5.20;99.90;;;;;;5058596;28;20132;-82
2022/01/24 01:27:46;;;;;;;32.13;21.88;;;6.60;99.90;;;;;;5040462;28;20536;-81
2022/01/24 01:30:19;;;;;;;30.75;22.30;;;5.20;99.90;;;;;;5027954;28;20111;-83
2022/01/24 01:56:37;;;;;;;34.10;23.73;;;5.20;99.90;;;;;;5055667;28;20059;-81
2022/01/24 01:59:03;;;;;;;35.58;23.85;;;5.20;99.90;;;;;;5023244;28;20057;-82
2022/01/24 02:01:29;;;;;;;32.65;23.50;;;5.20;99.90;;;;;;5073523;28;20143;-83
2022/01/24 02:03:56;;;;;;;31.15;23.58;;;5.20;99.90;;;;;;5037780;28;20490;-81
2022/01/24 02:06:23;;;;;;;34.88;23.23;;;5.30;99.90;;;;;;5023900;28;20052;-81
2022/01/24 02:08:57;;;;;;;32.53;23.50;;;5.20;99.90;;;;;;5055472;28;20375;-82
2022/01/24 02:11:23;;;;;;;32.13;22.98;;;5.30;99.90;;;;;;5047518;28;20044;-82
2022/01/24 02:13:49;;;;;;;34.58;23.08;;;6.20;99.90;;;;;;5038164;28;20619;-82
2022/01/24 02:16:27;;;;;;;24.63;18.95;;;5.20;99.90;;;;;;5039669;28;20546;-82
2022/01/24 02:19:08;;;;;;;29.23;19.77;;;5.30;99.90;;;;;;5026320;28;20494;-82
2022/01/24 02:21:47;;;;;;;24.27;18.10;;;5.30;99.90;;;;;;5042576;28;20091;-81
2022/01/24 02:24:17;;;;;;;27.88;18.85;;;5.80;99.90;;;;;;5069808;28;20140;-83
2022/01/24 02:26:43;;;;;;;26.95;18.55;;;5.30;99.90;;;;;;5076954;28;20052;-82
2022/01/24 02:29:22;;;;;;;23.42;17.65;;;5.30;99.90;;;;;;5060142;28;20080;-83
2022/01/24 02:31:51;;;;;;;20.90;15.25;;;6.20;99.90;;;;;;5078858;28;20098;-82
2022/01/24 02:34:34;;;;;;;21.13;15.35;;;5.40;99.90;;;;;;5023351;28;20036;-82
2022/01/24 02:37:05;;;;;;;16.70;12.25;;;5.30;99.90;;;;;;5055676;28;20040;-82
2022/01/24 02:50:17;;;;;;;14.25;11.23;;;5.30;99.90;;;;;;5090533;28;20056;-83
2022/01/24 02:52:42;;;;;;;18.30;11.25;;;4.30;99.90;;;;;;5036303;28;20056;-83
2022/01/24 02:55:08;;;;;;;19.48;12.27;;;5.20;99.90;;;;;;5038174;28;20045;-82
2022/01/24 02:57:34;;;;;;;16.88;11.27;;;5.30;99.90;;;;;;5018305;28;20102;-83
2022/01/24 03:00:00;;;;;;;14.75;10.93;;;5.30;99.90;;;;;;5053218;28;20589;-83
2022/01/24 03:02:26;;;;;;;14.48;11.05;;;5.40;99.90;;;;;;5020479;28;20511;-83
2022/01/24 03:04:56;;;;;;;15.63;11.95;;;4.10;99.90;;;;;;5055969;28;20063;-83
2022/01/24 03:07:22;;;;;;;16.15;11.68;;;5.20;99.90;;;;;;5069389;28;20084;-83
2022/01/24 03:09:49;;;;;;;15.25;11.48;;;5.30;99.90;;;;;;5021838;28;20044;-83
2022/01/24 03:12:26;;;;;;;15.43;11.23;;;6.40;99.90;;;;;;5071935;28;21881;-83
2022/01/24 03:14:52;;;;;;;17.08;12.05;;;5.20;99.90;;;;;;5026807;28;20138;-83
2022/01/24 03:17:18;;;;;;;17.50;11.77;;;5.40;99.90;;;;;;5053278;28;20045;-83
2022/01/24 03:19:45;;;;;;;14.88;11.88;;;5.20;99.90;;;;;;5022033;28;20045;-83
2022/01/24 03:22:11;;;;;;;16.08;12.27;;;6.20;99.90;;;;;;5055442;28;20096;-82
2022/01/24 03:24:37;;;;;;;20.02;12.88;;;5.20;99.90;;;;;;5023060;28;20052;-83
2022/01/24 03:27:03;;;;;;;16.50;12.00;;;5.20;99.90;;;;;;5023957;28;20141;-82
2022/01/24 03:29:31;;;;;;;16.65;12.23;;;5.20;99.90;;;;;;5038303;28;20056;-82
2022/01/24 03:31:57;;;;;;;20.08;13.13;;;5.20;99.90;;;;;;5054453;28;20063;-82
2022/01/24 03:34:23;;;;;;;19.58;13.75;;;5.30;99.90;;;;;;5054122;28;20044;-83
2022/01/24 03:36:48;;;;;;;18.02;13.95;;;5.40;99.90;;;;;;5039479;28;20072;-82
2022/01/24 03:39:14;;;;;;;18.67;13.80;;;6.60;99.90;;;;;;5052773;28;20037;-82
2022/01/24 03:41:40;;;;;;;18.05;13.75;;;5.00;99.90;;;;;;5039263;28;20052;-83
2022/01/24 03:44:07;;;;;;;20.98;14.93;;;5.30;99.90;;;;;;5039389;28;20482;-84
2022/01/24 03:46:46;;;;;;;20.50;14.23;;;5.30;99.90;;;;;;5007744;28;20044;-83
2022/01/24 03:49:45;;;;;;;20.40;14.27;;;5.30;99.90;;;;;;5069100;28;20051;-83
2022/01/24 03:51:58;;;;;;;21.33;15.00;;;5.30;99.90;;;;;;5087332;28;20052;-83
2022/01/24 03:54:23;;;;;;;20.77;14.93;;;5.20;99.90;;;;;;5015484;28;20060;-82
2022/01/24 03:56:51;;;;;;;24.10;15.77;;;5.30;99.90;;;;;;5056675;28;20041;-83
2022/01/24 03:59:17;;;;;;;20.95;15.05;;;5.20;99.90;;;;;;5066702;28;20383;-82
2022/01/24 04:01:43;;;;;;;19.70;13.77;;;6.40;99.90;;;;;;5044337;28;20047;-82
2022/01/24 04:04:09;;;;;;;19.85;14.73;;;5.20;99.90;;;;;;5042710;28;20101;-83
2022/01/24 04:06:34;;;;;;;19.33;12.57;;;4.20;99.90;;;;;;5056940;28;20122;-83
2022/01/24 04:09:00;;;;;;;18.17;13.32;;;5.20;99.90;;;;;;5060190;28;20083;-82
2022/01/24 04:11:32;;;;;;;19.60;13.40;;;5.20;99.90;;;;;;5009064;28;20135;-83
2022/01/24 04:14:10;;;;;;;19.90;14.82;;;5.20;99.90;;;;;;5075679;28;20452;-83
2022/01/24 04:16:40;;;;;;;18.83;13.07;;;5.20;99.90;;;;;;5011414;28;20049;-83
2022/01/24 04:21:17;;;;;;;20.33;13.20;;;5.30;99.90;;;;;;5061702;28;20053;-83
2022/01/24 04:21:58;;;;;;;17.90;14.00;;;5.20;99.90;;;;;;5091241;28;20131;-82
2022/01/24 04:24:25;;;;;;;19.00;13.60;;;5.30;99.90;;;;;;5039402;28;20565;-83
2022/01/24 04:26:51;;;;;;;19.48;13.82;;;5.30;99.90;;;;;;5040319;28;20040;-83
2022/01/24 04:29:17;;;;;;;20.20;14.30;;;6.00;99.90;;;;;;5043538;28;20398;-83
2022/01/24 04:31:44;;;;;;;25.52;14.65;;;5.10;99.90;;;;;;5043272;28;20044;-83
2022/01/24 04:34:10;;;;;;;20.17;14.00;;;5.10;99.90;;;;;;5073697;28;20048;-83
2022/01/24 04:36:38;;;;;;;20.15;13.75;;;6.60;99.90;;;;;;5042019;28;20044;-83
2022/01/24 04:39:05;;;;;;;23.40;14.82;;;5.30;99.90;;;;;;5071408;28;20044;-83
2022/01/24 04:41:36;;;;;;;21.58;15.40;;;6.00;99.90;;;;;;5057579;28;20073;-82
2022/01/24 04:44:16;;;;;;;20.05;14.88;;;5.10;99.90;;;;;;5026142;28;20442;-83
2022/01/24 04:46:56;;;;;;;22.58;14.52;;;5.20;99.90;;;;;;5029231;28;20103;-81
2022/01/24 04:54:42;;;;;;;19.67;14.48;;;5.30;99.90;;;;;;5043108;28;20418;-82
2022/01/24 04:57:10;;;;;;;18.45;14.15;;;5.20;99.90;;;;;;5072689;28;20477;-84
2022/01/24 04:59:41;;;;;;;22.38;15.43;;;5.20;99.90;;;;;;5043471;28;20640;-83
2022/01/24 05:02:08;;;;;;;22.08;15.13;;;5.20;99.90;;;;;;5039810;28;20056;-83
2022/01/24 05:04:35;;;;;;;20.10;15.38;;;5.60;99.90;;;;;;5041558;28;20055;-84
2022/01/24 05:07:01;;;;;;;21.20;15.20;;;5.20;99.90;;;;;;5040935;28;20486;-83
2022/01/24 05:09:31;;;;;;;22.67;15.73;;;;;;;;;;5072976;28;20051;-83
2022/01/24 05:12:03;;;;;;;23.60;15.75;;;5.20;99.90;;;;;;5040171;28;20060;-83
2022/01/24 05:25:25;;;;;;;24.05;16.15;;;5.10;99.90;;;;;;5057831;28;20057;-83
2022/01/24 05:27:51;;;;;;;25.98;17.30;;;4.00;99.90;;;;;;5039427;28;20048;-82
2022/01/24 05:30:17;;;;;;;25.90;16.42;;;4.90;99.90;;;;;;5023590;28;20093;-81
2022/01/24 05:32:44;;;;;;;24.90;16.10;;;5.80;99.90;;;;;;5023510;28;20072;-83
2022/01/24 05:35:10;;;;;;;25.48;15.80;;;5.10;99.90;;;;;;5043223;28;20048;-82
2022/01/24 05:37:35;;;;;;;30.15;17.38;;;5.10;99.90;;;;;;5025053;28;20041;-82
2022/01/24 05:40:01;;;;;;;27.60;16.92;;;5.30;99.90;;;;;;5039449;28;20053;-82
2022/01/24 05:42:27;;;;;;;26.08;16.92;;;5.00;99.90;;;;;;5038051;28;20076;-83
2022/01/24 05:44:53;;;;;;;26.00;17.75;;;6.10;99.90;;;;;;5041907;28;20047;-82
2022/01/24 05:47:19;;;;;;;25.50;17.30;;;5.10;99.90;;;;;;5074400;28;20520;-83
2022/01/24 05:49:45;;;;;;;27.98;17.80;;;5.10;99.90;;;;;;5039297;28;20044;-83
2022/01/24 05:52:12;;;;;;;28.73;17.35;;;5.10;99.90;;;;;;5036371;28;20048;-82
2022/01/24 05:54:40;;;;;;;29.00;17.75;;;5.00;99.90;;;;;;5039925;28;20162;-82
2022/01/24 05:57:07;;;;;;;26.60;17.73;;;5.10;99.90;;;;;;5024466;28;20132;-82
2022/01/24 05:59:33;;;;;;;27.92;17.35;;;5.10;99.90;;;;;;5024437;28;20071;-82
2022/01/24 06:01:59;;;;;;;31.35;18.67;;;5.10;99.90;;;;;;5038046;28;20060;-83
2022/01/24 06:04:25;;;;;;;29.23;17.55;;;5.10;99.90;;;;;;5055366;28;20044;-83
2022/01/24 06:06:51;;;;;;;26.75;17.42;;;5.10;99.90;;;;;;5040516;28;20100;-82
2022/01/24 06:09:17;;;;;;;27.48;17.10;;;5.20;99.90;;;;;;5071795;28;20069;-82
2022/01/24 06:11:43;;;;;;;25.83;17.45;;;5.00;99.90;;;;;;5037523;28;20072;-82
2022/01/24 06:14:10;;;;;;;24.08;15.77;;;5.20;99.90;;;;;;5024361;28;20049;-82
2022/01/24 06:16:36;;;;;;;27.35;16.42;;;5.10;99.90;;;;;;5055819;28;20405;-82
2022/01/24 06:19:04;;;;;;;24.42;16.17;;;5.10;99.90;;;;;;5039727;28;20056;-83
2022/01/24 06:21:30;;;;;;;25.40;16.15;;;5.10;99.90;;;;;;5056379;28;20517;-83
2022/01/24 06:23:56;;;;;;;28.65;17.25;;;5.10;99.90;;;;;;5087144;28;20048;-83
2022/01/24 06:26:22;;;;;;;28.52;17.35;;;5.10;99.90;;;;;;5042631;28;20135;-83
2022/01/24 06:28:48;;;;;;;28.10;17.35;;;5.00;99.90;;;;;;5037691;28;20088;-82
2022/01/24 06:31:14;;;;;;;26.95;16.52;;;5.20;99.90;;;;;;5055757;28;20041;-82
2022/01/24 06:33:39;;;;;;;26.77;16.73;;;5.00;99.90;;;;;;5037955;28;20052;-83
2022/01/24 06:36:05;;;;;;;26.33;16.58;;;5.20;99.90;;;;;;5073903;28;20558;-82
2022/01/24 06:38:31;;;;;;;27.95;17.83;;;5.10;99.90;;;;;;5035062;28;20551;-83
2022/01/24 06:40:57;;;;;;;28.15;17.13;;;5.10;99.90;;;;;;5022948;28;20123;-83
2022/01/24 06:43:23;;;;;;;29.65;17.35;;;5.10;99.90;;;;;;5036298;28;20123;-83
2022/01/24 06:45:50;;;;;;;25.73;16.50;;;5.10;99.90;;;;;;5038965;28;20079;-83
2022/01/24 06:48:15;;;;;;;28.33;17.67;;;5.20;99.90;;;;;;5040433;28;20079;-82
2022/01/24 06:50:41;;;;;;;27.23;17.85;;;5.20;99.90;;;;;;5040940;28;20533;-83
2022/01/24 06:53:07;;;;;;;28.65;19.13;;;6.40;99.90;;;;;;5023080;28;20065;-83
2022/01/24 06:55:33;;;;;;;27.75;17.95;;;5.00;99.90;;;;;;5037157;28;20144;-83
2022/01/24 06:57:59;;;;;;;26.73;17.10;;;5.10;99.90;;;;;;5052661;28;20109;-82
2022/01/24 07:00:30;;;;;;;29.23;19.08;;;5.00;99.90;;;;;;5038394;28;20106;-83
2022/01/24 07:02:57;;;;;;;23.77;16.80;;;4.30;99.90;;;;;;5024074;28;20155;-82
2022/01/24 07:05:27;;;;;;;26.45;17.98;;;5.20;99.90;;;;;;5079016;28;20208;-82
2022/01/24 07:07:56;;;;;;;26.00;17.70;;;5.10;99.90;;;;;;5044057;28;20036;-82
2022/01/24 07:10:24;;;;;;;28.38;18.83;;;5.50;99.90;;;;;;5070317;28;20045;-82
2022/01/24 07:12:51;;;;;;;27.10;18.55;;;5.00;99.90;;;;;;5036666;28;20391;-83
2022/01/24 07:15:19;;;;;;;30.08;19.40;;;6.60;99.90;;;;;;5053144;28;20049;-83
2022/01/24 07:18:57;;;;;;;27.63;18.50;;;6.70;99.90;;;;;;5069073;28;20048;-82
2022/01/24 07:20:35;;;;;;;26.42;18.15;;;5.00;99.90;;;;;;5043394;28;20131;-83
2022/01/24 07:23:02;;;;;;;26.92;18.80;;;5.00;99.90;;;;;;5055954;28;20056;-83
2022/01/24 07:25:28;;;;;;;29.33;19.65;;;5.00;99.90;;;;;;5023366;28;20048;-82
2022/01/24 07:27:54;;;;;;;25.92;18.83;;;5.00;99.90;;;;;;5071512;28;20045;-81
2022/01/24 07:30:20;;;;;;;26.63;18.13;;;5.10;99.90;;;;;;5055742;28;20055;-83
2022/01/24 07:32:48;;;;;;;23.45;17.02;;;5.00;99.90;;;;;;5036361;28;20052;-83
2022/01/24 07:35:14;;;;;;;22.33;16.20;;;5.10;99.90;;;;;;5036694;28;20044;-83
2022/01/24 07:37:40;;;;;;;22.25;15.65;;;5.10;99.90;;;;;;5026637;28;20052;-82
2022/01/24 07:40:08;;;;;;;23.75;16.95;;;5.10;99.90;;;;;;5042879;28;20045;-81
2022/01/24 07:45:18;;;;;;;28.08;18.38;;;5.10;99.90;;;;;;5094220;28;20080;-82
2022/01/24 07:47:47;;;;;;;30.50;19.33;;;5.10;99.90;;;;;;5027508;28;20049;-82
2022/01/24 07:50:19;;;;;;;27.98;19.95;;;5.10;99.90;;;;;;5077193;28;20144;-82
2022/01/24 07:52:45;;;;;;;27.45;19.58;;;5.10;99.90;;;;;;5043725;28;20119;-83
2022/01/24 07:55:11;;;;;;;29.05;19.92;;;5.00;99.90;;;;;;5059125;28;20128;-82
2022/01/24 07:57:37;;;;;;;28.38;19.30;;;5.00;99.90;;;;;;5041530;28;20037;-82
2022/01/24 08:00:05;;;;;;;27.42;18.92;;;5.00;99.90;;;;;;5042723;28;20056;-82
2022/01/24 08:02:31;;;;;;;27.70;19.88;;;4.60;99.90;;;;;;5041356;28;20090;-83
2022/01/24 08:05:04;;;;;;;29.45;19.67;;;5.00;99.90;;;;;;5092459;28;20560;-82
2022/01/24 08:07:29;;;;;;;28.17;20.95;;;5.00;99.90;;;;;;5025903;28;20060;-82
2022/01/24 08:09:55;;;;;;;26.35;19.42;;;4.90;99.90;;;;;;5038898;28;20048;-82
2022/01/24 08:12:21;;;;;;;29.13;19.38;;;5.00;99.90;;;;;;5074134;28;20051;-83
2022/01/24 08:14:47;;;;;;;27.98;19.73;;;5.10;99.90;;;;;;5040565;28;20056;-81
2022/01/24 08:17:13;;;;;;;27.90;19.85;;;5.00;99.90;;;;;;4993156;28;20036;-81
2022/01/24 08:19:39;;;;;;;26.80;19.42;;;5.00;99.90;;;;;;5053817;28;20550;-80
2022/01/24 08:22:05;;;;;;;28.08;19.90;;;5.00;99.90;;;;;;5056393;28;20595;-81
2022/01/24 08:24:31;;;;;;;29.48;19.65;;;5.00;99.90;;;;;;5040379;28;20138;-82
2022/01/24 08:26:57;;;;;;;25.77;19.38;;;5.50;99.90;;;;;;5040244;28;20158;-81
2022/01/24 08:29:22;;;;;;;28.98;20.08;;;5.00;99.90;;;;;;5054866;28;20123;-80
2022/01/24 08:31:48;;;;;;;31.00;20.63;;;4.60;99.90;;;;;;5039864;28;20091;-81
2022/01/24 08:34:14;;;;;;;23.58;17.50;;;5.00;99.90;;;;;;5038068;28;20040;-82
2022/01/24 08:40:23;;;;;;;25.50;18.90;;;5.10;99.90;;;;;;5028712;28;20131;-82
2022/01/24 08:43:02;;;;;;;23.75;17.65;;;5.00;99.90;;;;;;5055428;28;20049;-82
2022/01/24 08:45:46;;;;;;;24.10;17.45;;;5.00;99.90;;;;;;5041163;28;20114;-82
2022/01/24 08:48:13;;;;;;;24.88;18.58;;;5.10;99.90;;;;;;5040827;28;20036;-82
2022/01/24 08:50:40;;;;;;;26.35;18.85;;;5.20;99.90;;;;;;5024548;28;20076;-80
2022/01/24 08:53:06;;;;;;;24.92;18.15;;;5.10;99.90;;;;;;5038679;28;20059;-83
2022/01/24 08:55:34;;;;;;;25.30;18.15;;;5.10;99.90;;;;;;5038516;28;20053;-83
2022/01/24 08:58:01;;;;;;;20.63;15.80;;;5.10;99.90;;;;;;5036619;28;20072;-81
2022/01/24 09:00:28;;;;;;;22.60;16.70;;;5.00;99.90;;;;;;5015392;28;20114;-83
2022/01/24 09:02:56;;;;;;;24.33;17.92;;;4.70;99.90;;;;;;5074924;28;20044;-84
2022/01/24 09:05:35;;;;;;;28.05;18.95;;;5.10;99.90;;;;;;5094040;28;20504;-86
2022/01/24 09:08:06;;;;;;;24.88;17.83;;;5.10;99.90;;;;;;5057588;28;20121;-86
2022/01/24 09:10:33;;;;;;;25.25;18.42;;;5.30;99.90;;;;;;5059317;28;20082;-85
2022/01/24 09:13:33;;;;;;;28.08;19.50;;;5.10;99.90;;;;;;5031139;28;20515;-88
2022/01/24 09:16:02;;;;;;;24.92;18.58;;;5.10;99.90;;;;;;5037772;28;20135;-83
2022/01/24 09:18:29;;;;;;;26.15;18.95;;;5.10;99.90;;;;;;5044459;28;20053;-81
2022/01/24 09:20:56;;;;;;;28.90;20.33;;;5.20;99.90;;;;;;5046928;28;20260;-86
2022/01/24 09:23:23;;;;;;;23.95;18.08;;;5.20;99.90;;;;;;5100196;28;20123;-84
2022/01/24 09:25:52;;;;;;;23.60;18.50;;;5.20;99.90;;;;;;5040721;28;20041;-82
2022/01/24 09:28:18;;;;;;;25.40;19.60;;;5.20;99.90;;;;;;5040499;28;20044;-84
2022/01/24 09:30:44;;;;;;;24.27;18.92;;;5.20;99.90;;;;;;5023505;28;20495;-83
2022/01/24 09:33:12;;;;;;;23.50;17.88;;;5.20;99.90;;;;;;5039095;28;20145;-83
2022/01/24 09:35:43;;;;;;;21.67;16.25;;;6.10;99.90;;;;;;5025311;28;20040;-88
2022/01/24 09:38:16;;;;;;;24.17;18.70;;;5.20;99.90;;;;;;5058989;28;20045;-84
2022/01/24 09:40:43;;;;;;;24.33;18.67;;;5.30;99.90;;;;;;5067891;28;20041;-84
2022/01/24 09:43:09;;;;;;;23.02;17.60;;;5.30;99.90;;;;;;5024149;28;20057;-83
2022/01/24 09:45:36;;;;;;;23.05;17.20;;;5.30;99.90;;;;;;5072726;28;20057;-83
2022/01/24 09:48:03;;;;;;;24.80;17.75;;;5.40;99.90;;;;;;5040447;28;20064;-84
2022/01/24 09:50:30;;;;;;;24.85;18.38;;;5.30;99.90;;;;;;5039760;28;20117;-84
2022/01/24 09:52:56;;;;;;;26.13;19.10;;;6.70;99.90;;;;;;5054943;28;20057;-83
2022/01/24 09:55:23;;;;;;;26.73;19.67;;;5.30;99.90;;;;;;5040602;28;20071;-83
2022/01/24 09:57:50;;;;;;;28.88;20.17;;;5.30;99.90;;;;;;5043430;28;20044;-82
2022/01/24 10:00:24;;;;;;;29.08;21.05;;;5.30;99.90;;;;;;5074631;28;20098;-84
2022/01/24 10:02:51;;;;;;;26.80;20.52;;;5.30;99.90;;;;;;5024182;28;20048;-83
2022/01/24 10:05:27;;;;;;;29.13;20.60;;;5.30;99.90;;;;;;5057100;28;20041;-83
2022/01/24 10:07:56;;;;;;;;;;;5.40;99.90;;;;;;5058645;28;20048;-83
2022/01/24 10:10:29;;;;;;;28.67;19.90;;;5.30;99.90;;;;;;5074400;28;19928;-83
2022/01/24 10:18:08;;;;;;;31.55;21.38;;;5.40;99.90;;;;;;5063013;28;20472;-83
2022/01/24 10:20:42;;;;;;;29.15;21.25;;;5.40;99.90;;;;;;5074517;28;20048;-83
2022/01/24 10:23:24;;;;;;;29.30;21.77;;;5.50;99.90;;;;;;5058476;28;20071;-83
2022/01/24 10:25:59;;;;;;;27.77;20.23;;;5.40;99.90;;;;;;5040003;28;20052;-84
2022/01/24 10:28:44;;;;;;;28.42;21.52;;;5.40;99.90;;;;;;5024620;28;20799;-82
2022/01/24 10:31:17;;;;;;;27.88;20.15;;;5.40;99.90;;;;;;5040183;28;20509;-81
2022/01/24 10:34:04;;;;;;;27.70;19.58;;;5.40;99.90;;;;;;5038198;28;20040;-81
2022/01/24 10:36:55;;;;;;;26.48;19.85;;;5.40;99.90;;;;;;5089878;28;20105;-81
2022/01/24 10:39:55;;;;;;;28.65;20.02;;;5.50;99.90;;;;;;5031695;28;20771;-81
2022/01/24 10:45:01;;;;;;;29.13;20.88;;;5.40;99.90;;;;;;5056081;28;20068;-81
2022/01/24 10:47:44;;;;;;;30.45;21.70;;;5.40;99.90;;;;;;5025113;28;20041;-81
2022/01/24 10:50:10;;;;;;;30.15;21.00;;;5.50;99.90;;;;;;5039393;28;20041;-81
2022/01/24 10:52:36;;;;;;;29.35;20.58;;;5.60;99.90;;;;;;5040044;28;20056;-81
2022/01/24 10:55:26;;;;;;;28.02;20.92;;;5.60;99.90;;;;;;5037791;28;20075;-81
2022/01/24 10:58:15;;;;;;;26.00;19.42;;;5.60;99.90;;;;;;5055353;28;20139;-81
2022/01/24 11:00:41;;;;;;;27.83;19.73;;;5.50;99.90;;;;;;5071401;28;20176;-84
2022/01/24 11:03:18;;;;;;;24.17;18.77;;;5.90;99.90;;;;;;5056190;28;20089;-81
2022/01/24 11:05:44;;;;;;;26.63;18.75;;;5.60;99.90;;;;;;5022522;28;20543;-82
2022/01/24 11:08:17;;;;;;;25.17;18.92;;;5.60;99.90;;;;;;5031659;28;20053;-82
2022/01/24 11:10:46;;;;;;;26.63;18.88;;;5.60;99.90;;;;;;5038653;28;20057;-82
2022/01/24 11:13:13;;;;;;;26.83;19.02;;;5.60;99.90;;;;;;5052678;28;20048;-82
2022/01/24 11:15:42;;;;;;;25.90;18.77;;;5.60;99.90;;;;;;5036362;28;20080;-81
2022/01/24 11:18:14;;;;;;;23.52;18.83;;;5.60;99.90;;;;;;5022800;28;20036;-82
2022/01/24 11:20:44;;;;;;;22.90;17.95;;;5.60;99.90;;;;;;5036165;28;20054;-82
2022/01/24 11:23:10;;;;;;;25.00;18.55;;;5.60;99.90;;;;;;5055240;28;20048;-83
2022/01/24 11:25:42;;;;;;;26.13;19.50;;;5.60;99.90;;;;;;5027044;28;20064;-85
2022/01/24 11:28:26;;;;;;;24.58;17.73;;;5.50;99.90;;;;;;5069581;28;20613;-86
2022/01/24 11:30:55;;;;;;;24.02;18.45;;;5.60;99.90;;;;;;5041328;28;20465;-86
2022/01/24 11:33:47;;;;;;;23.20;18.17;;;6.50;99.90;;;;;;5025994;28;20075;-87
2022/01/24 11:36:38;;;;;;;22.63;18.17;;;5.60;99.90;;;;;;5080603;28;20658;-87
2022/01/24 11:39:21;;;;;;;23.15;17.90;;;5.70;99.90;;;;;;5076726;28;20044;-88
2022/01/24 11:41:48;;;;;;;23.63;17.50;;;5.70;99.90;;;;;;5052518;28;20500;-81
2022/01/24 11:44:17;;;;;;;22.83;17.52;;;5.70;99.90;;;;;;5034785;28;20124;-83
2022/01/24 11:46:55;;;;;;;23.75;18.45;;;5.70;99.90;;;;;;5036785;28;20080;-84
2022/01/24 11:49:36;;;;;;;25.48;19.10;;;5.60;99.90;;;;;;5072493;28;20049;-82
2022/01/24 11:52:11;;;;;;;21.60;16.70;;;5.70;99.90;;;;;;5053265;28;20865;-82
2022/01/24 11:57:35;;;;;;;22.55;16.60;;;7.00;99.90;;;;;;5089290;28;20383;-83
2022/01/24 12:00:04;;;;;;;20.33;16.08;;;5.50;99.90;;;;;;5039135;28;20178;-82
2022/01/24 12:02:37;;;;;;;21.75;16.00;;;5.70;99.90;;;;;;5054069;28;20041;-82
2022/01/24 12:05:34;;;;;;;23.58;17.73;;;5.70;99.90;;;;;;5039876;28;20291;-82
2022/01/24 12:08:06;;;;;;;26.00;17.38;;;5.70;99.90;;;;;;5024835;28;20065;-82
2022/01/24 12:10:40;;;;;;;24.73;18.65;;;5.80;99.90;;;;;;5040329;28;20128;-83
2022/01/24 12:13:13;;;;;;;25.02;18.52;;;6.70;99.90;;;;;;5072604;28;20052;-83
2022/01/24 12:15:39;;;;;;;25.67;19.08;;;5.70;99.90;;;;;;5071707;28;20494;-83
2022/01/24 12:18:42;;;;;;;25.65;19.05;;;5.80;99.90;;;;;;5071796;28;20041;-83
2022/01/24 12:21:14;;;;;;;23.45;17.70;;;5.70;99.90;;;;;;5072711;28;20084;-82
2022/01/24 12:23:55;;;;;;;28.00;20.48;;;6.20;99.90;;;;;;5059412;28;20143;-82
2022/01/24 12:26:30;;;;;;;22.95;17.05;;;5.80;99.90;;;;;;5060715;28;20051;-82
2022/01/24 12:29:01;;;;;;;22.77;17.60;;;5.70;99.90;;;;;;5061690;28;20055;-82
2022/01/24 12:31:30;;;;;;;23.17;16.85;;;6.60;99.90;;;;;;5075990;28;20079;-82
2022/01/24 12:33:58;;;;;;;22.40;17.17;;;5.80;99.90;;;;;;5060102;28;20048;-84
2022/01/24 12:36:51;;;;;;;22.13;17.30;;;5.70;99.90;;;;;;5042074;28;20389;-82
2022/01/24 12:39:20;;;;;;;21.70;16.50;;;5.80;99.90;;;;;;5026432;28;20127;-83
2022/01/24 12:42:01;;;;;;;22.08;17.23;;;7.30;99.90;;;;;;5042105;28;20052;-84
2022/01/24 12:47:05;;;;;;;20.42;15.73;;;5.70;99.90;;;;;;5090312;28;20055;-83
2022/01/24 12:49:31;;;;;;;22.15;16.60;;;5.80;99.90;;;;;;5059833;28;20048;-82
2022/01/24 12:52:02;;;;;;;20.35;15.98;;;5.70;99.90;;;;;;5055463;28;20044;-83
2022/01/24 12:54:34;;;;;;;22.77;17.40;;;5.70;99.90;;;;;;5041849;28;20048;-84
2022/01/24 12:57:06;;;;;;;24.88;17.58;;;5.70;99.90;;;;;;5056426;28;20040;-82
2022/01/24 12:59:34;;;;;;;25.02;18.23;;;5.70;99.90;;;;;;5077271;28;20056;-82
2022/01/24 13:02:02;;;;;;;27.02;18.48;;;5.80;99.90;;;;;;5025134;28;20049;-83
2022/01/24 13:04:39;;;;;;;27.02;19.48;;;5.70;99.90;;;;;;5058207;28;20053;-83
2022/01/24 13:07:09;;;;;;;30.10;17.65;;;5.70;99.90;;;;;;5075911;28;20048;-83
2022/01/24 13:09:36;;;;;;;22.38;17.20;;;5.70;99.90;;;;;;5057632;28;20121;-83
2022/01/24 13:12:08;;;;;;;24.05;17.02;;;4.70;99.90;;;;;;5042898;28;20048;-83
2022/01/24 13:25:23;;;;;;;23.42;17.52;;;5.70;99.90;;;;;;5092901;28;20053;-83
2022/01/24 13:28:06;;;;;;;23.75;17.90;;;5.70;99.90;;;;;;5061181;28;20132;-85
2022/01/24 13:30:40;;;;;;;24.23;18.17;;;5.70;99.90;;;;;;5041752;28;20059;-83
2022/01/24 13:33:09;;;;;;;24.98;18.17;;;5.60;99.90;;;;;;5091684;28;20168;-83
2022/01/24 13:35:42;;;;;;;23.73;18.52;;;5.70;99.90;;;;;;5075339;28;20053;-83
2022/01/24 13:38:13;;;;;;;25.88;19.38;;;5.60;99.90;;;;;;5064652;28;20041;-84
2022/01/24 13:40:52;;;;;;;27.30;19.75;;;5.60;99.90;;;;;;5052751;28;20059;-84
2022/01/24 13:43:32;;;;;;;25.33;19.65;;;5.60;99.90;;;;;;5066419;28;20708;-85
2022/01/24 13:45:59;;;;;;;28.05;19.25;;;5.60;99.90;;;;;;5044418;28;20518;-83
2022/01/24 13:48:25;;;;;;;25.55;18.90;;;5.60;99.90;;;;;;5041642;28;20079;-83
2022/01/24 13:50:58;;;;;;;28.67;20.58;;;6.70;99.90;;;;;;5040730;28;20456;-83
2022/01/24 13:53:33;;;;;;;24.83;18.35;;;5.70;99.90;;;;;;5072781;28;20059;-84
2022/01/24 13:55:59;;;;;;;25.13;18.52;;;5.60;99.90;;;;;;5057673;28;20135;-83
2022/01/24 13:58:57;;;;;;;25.05;17.73;;;5.60;99.90;;;;;;5041020;28;20056;-83
2022/01/24 14:01:22;;;;;;;23.67;18.10;;;5.20;99.90;;;;;;5069950;28;20543;-83
2022/01/24 14:04:23;;;;;;;24.77;19.10;;;5.60;99.90;;;;;;4993178;28;20048;-83
2022/01/24 14:06:56;;;;;;;26.10;18.98;;;5.60;99.90;;;;;;5024534;28;20052;-83
2022/01/24 14:09:33;;;;;;;26.13;19.20;;;5.60;99.90;;;;;;5039119;28;20398;-83
2022/01/24 14:11:59;;;;;;;27.10;19.67;;;5.60;99.90;;;;;;5039404;28;20051;-82
2022/01/24 14:20:14;;;;;;;26.10;19.77;;;5.60;99.90;;;;;;5033446;28;20133;-83
2022/01/24 14:22:51;;;;;;;25.50;19.00;;;5.60;99.90;;;;;;5025342;28;20052;-83
2022/01/24 14:25:31;;;;;;;24.50;18.63;;;5.60;99.90;;;;;;5040697;28;20059;-84
2022/01/24 14:27:58;;;;;;;26.13;19.33;;;5.60;99.90;;;;;;5042182;28;20057;-84
2022/01/24 14:30:25;;;;;;;22.13;17.42;;;5.50;99.90;;;;;;5025378;28;20139;-84
2022/01/24 14:33:20;;;;;;;22.02;17.88;;;6.50;99.90;;;;;;5043083;28;20063;-84
2022/01/24 14:36:13;;;;;;;24.67;18.13;;;5.50;99.90;;;;;;5025463;28;20076;-83
2022/01/24 14:38:45;;;;;;;25.83;19.42;;;5.50;99.90;;;;;;5041814;28;20129;-83
2022/01/24 14:41:18;;;;;;;24.48;18.30;;;5.50;99.90;;;;;;5042058;28;20049;-83
2022/01/24 14:46:33;;;;;;;;;;;5.50;99.90;;;;;;5056030;28;20052;-83
2022/01/24 14:49:02;;;;;;;26.17;18.23;;;5.60;99.90;;;;;;5056152;28;20337;-83
2022/01/24 14:51:34;;;;;;;24.80;18.67;;;5.50;99.90;;;;;;5040818;28;20072;-83